createdAt,value
2019-03-30T00:01:19.266Z,47.60
2019-03-30T00:06:16.564Z,46.40
2019-03-30T00:10:43.582Z,43.60
2019-03-30T00:14:49.311Z,43.70
2019-03-30T00:18:55.034Z,45.00
2019-03-30T00:23:00.811Z,45.90
2019-03-30T00:27:06.595Z,44.20
2019-03-30T00:31:12.296Z,43.60
2019-03-30T00:35:18.064Z,42.80
2019-03-30T00:39:23.758Z,44.00
2019-03-30T00:43:29.438Z,44.80
2019-03-30T00:47:35.227Z,48.50
2019-03-30T00:51:40.914Z,47.60
2019-03-30T00:55:46.628Z,47.90
2019-03-30T00:59:52.317Z,46.50
2019-03-30T01:03:58.011Z,47.90
2019-03-30T01:08:03.742Z,47.80
2019-03-30T01:12:09.436Z,48.00
2019-03-30T01:16:15.204Z,50.00
2019-03-30T01:20:20.892Z,50.10
2019-03-30T01:24:28.322Z,49.70
2019-03-30T01:28:34.029Z,50.50
2019-03-30T01:32:39.730Z,49.00
2019-03-30T01:36:45.628Z,51.10
2019-03-30T01:40:51.309Z,50.20
2019-03-30T01:44:57.975Z,48.20
2019-03-30T01:49:03.712Z,49.50
2019-03-30T01:53:09.404Z,50.40
2019-03-30T01:57:15.111Z,52.60
2019-03-30T02:01:20.918Z,52.10
2019-03-30T02:05:26.649Z,49.80
2019-03-30T02:09:32.501Z,52.90
2019-03-30T02:13:38.194Z,52.70
2019-03-30T02:17:43.886Z,49.10
2019-03-30T02:21:49.588Z,50.80
2019-03-30T02:25:55.299Z,52.20
2019-03-30T02:30:01.014Z,50.40
2019-03-30T02:34:07.859Z,51.30
2019-03-30T02:38:13.539Z,54.30
2019-03-30T02:42:19.519Z,51.60
2019-03-30T02:46:25.224Z,54.90
2019-03-30T02:50:47.686Z,52.30
2019-03-30T02:54:38.346Z,55.00
2019-03-30T02:58:44.039Z,52.80
2019-03-30T03:02:49.758Z,55.50
2019-03-30T03:06:55.505Z,53.50
2019-03-30T03:11:01.288Z,53.10
2019-03-30T03:15:11.046Z,55.00
2019-03-30T03:19:16.733Z,54.60
2019-03-30T03:23:22.424Z,56.90
2019-03-30T03:27:28.129Z,53.50
2019-03-30T03:31:33.827Z,57.50
2019-03-30T03:35:39.561Z,54.50
2019-03-30T03:39:45.237Z,57.70
2019-03-30T03:43:51.041Z,59.00
2019-03-30T03:47:56.809Z,58.90
2019-03-30T03:52:03.338Z,55.50
2019-03-30T03:56:11.731Z,57.90
2019-03-30T04:00:17.511Z,58.50
2019-03-30T04:04:27.460Z,58.80
2019-03-30T04:08:33.704Z,57.00
2019-03-30T04:12:41.208Z,56.60
2019-03-30T04:16:47.075Z,60.20
2019-03-30T04:20:53.804Z,59.20
2019-03-30T04:24:59.506Z,56.60
2019-03-30T04:29:05.215Z,56.40
2019-03-30T04:33:11.071Z,61.80
2019-03-30T04:37:16.797Z,58.10
2019-03-30T04:41:22.640Z,60.20
2019-03-30T04:45:28.418Z,58.70
2019-03-30T04:49:34.129Z,56.90
2019-03-30T04:53:39.831Z,58.10
2019-03-30T04:57:49.738Z,60.10
2019-03-30T05:01:52.927Z,59.50
2019-03-30T05:05:58.681Z,60.60
2019-03-30T05:10:08.633Z,61.90
2019-03-30T05:14:14.322Z,60.50
2019-03-30T05:18:20.022Z,61.60
2019-03-30T05:22:25.702Z,64.60
2019-03-30T05:26:31.474Z,58.40
2019-03-30T05:30:37.375Z,60.40
2019-03-30T05:34:43.152Z,60.70
2019-03-30T05:38:48.853Z,60.60
2019-03-30T05:42:54.532Z,60.90
2019-03-30T05:47:00.233Z,59.00
2019-03-30T05:51:06.054Z,60.70
2019-03-30T05:55:11.791Z,60.00
2019-03-30T05:59:17.489Z,55.70
2019-03-30T06:03:23.187Z,57.00
2019-03-30T06:07:28.921Z,58.80
2019-03-30T06:11:34.703Z,57.00
2019-03-30T06:15:40.411Z,55.10
2019-03-30T06:19:46.162Z,53.90
2019-03-30T06:23:51.897Z,54.80
2019-03-30T06:27:57.664Z,53.60
2019-03-30T06:32:03.360Z,55.90
2019-03-30T06:36:09.102Z,56.40
2019-03-30T06:40:16.405Z,51.70
2019-03-30T06:44:22.103Z,52.60
2019-03-30T06:48:27.830Z,51.80
2019-03-30T06:52:33.534Z,51.20
2019-03-30T06:56:39.273Z,49.50
2019-03-30T07:00:46.390Z,46.90
2019-03-30T07:04:52.611Z,45.10
2019-03-30T07:09:01.828Z,43.30
2019-03-30T07:13:07.838Z,43.20
2019-03-30T07:17:14.282Z,43.00
2019-03-30T07:21:19.964Z,45.30
2019-03-30T07:25:26.311Z,44.00
2019-03-30T07:29:32.015Z,41.70
2019-03-30T07:33:37.815Z,40.60
2019-03-30T07:37:43.524Z,40.20
2019-03-30T07:41:49.225Z,39.90
2019-03-30T07:45:54.925Z,39.60
2019-03-30T07:50:00.633Z,39.00
2019-03-30T07:54:06.405Z,38.20
2019-03-30T07:58:12.114Z,37.20
2019-03-30T08:02:17.816Z,36.90
2019-03-30T08:06:23.517Z,38.00
2019-03-30T08:10:29.352Z,35.70
2019-03-30T08:14:35.088Z,36.00
2019-03-30T08:18:40.740Z,35.80
2019-03-30T08:22:47.422Z,35.40
2019-03-30T08:26:53.127Z,34.70
2019-03-30T08:30:58.869Z,33.70
2019-03-30T08:35:06.327Z,32.90
2019-03-30T08:39:12.138Z,33.70
2019-03-30T08:43:17.887Z,33.60
2019-03-30T08:47:23.612Z,31.40
2019-03-30T08:51:29.310Z,31.30
2019-03-30T08:55:35.031Z,31.60
2019-03-30T08:59:40.717Z,30.30
2019-03-30T09:03:47.517Z,30.10
2019-03-30T09:07:53.214Z,29.60
2019-03-30T09:11:58.923Z,29.30
2019-03-30T09:16:04.645Z,29.30
2019-03-30T09:20:10.643Z,28.20
2019-03-30T09:24:16.342Z,27.90
2019-03-30T09:28:22.160Z,27.20
2019-03-30T09:32:27.932Z,26.50
2019-03-30T09:36:33.759Z,26.20
2019-03-30T09:40:39.525Z,25.80
2019-03-30T09:44:45.222Z,26.20
2019-03-30T09:48:50.919Z,25.40
2019-03-30T09:52:56.658Z,24.70
2019-03-30T09:57:02.359Z,24.20
2019-03-30T10:01:08.129Z,24.30
2019-03-30T10:05:14.142Z,24.10
2019-03-30T10:09:19.855Z,23.50
2019-03-30T10:13:25.635Z,22.90
2019-03-30T10:17:31.387Z,22.80
2019-03-30T10:21:37.088Z,22.50
2019-03-30T10:25:42.795Z,21.50
2019-03-30T10:29:48.529Z,21.00
2019-03-30T10:33:54.240Z,20.20
2019-03-30T10:37:59.926Z,19.90
2019-03-30T10:42:05.763Z,20.90
2019-03-30T10:46:11.516Z,19.70
2019-03-30T10:50:17.385Z,20.00
2019-03-30T10:54:23.121Z,19.30
2019-03-30T10:58:28.839Z,19.80
2019-03-30T11:02:34.600Z,19.00
2019-03-30T11:06:40.338Z,18.30
2019-03-30T11:10:46.087Z,18.10
2019-03-30T11:14:51.861Z,17.90
2019-03-30T11:18:57.635Z,18.60
2019-03-30T11:23:03.372Z,18.40
2019-03-30T11:27:09.068Z,17.70
2019-03-30T11:31:14.790Z,17.70
2019-03-30T11:35:20.508Z,18.10
2019-03-30T11:39:26.252Z,17.40
2019-03-30T11:43:31.971Z,16.80
2019-03-30T11:47:37.703Z,17.60
2019-03-30T11:51:43.409Z,16.30
2019-03-30T11:55:49.148Z,16.70
2019-03-30T11:59:54.833Z,17.30
2019-03-30T12:04:00.538Z,17.40
2019-03-30T12:08:06.328Z,17.10
2019-03-30T12:12:12.025Z,17.80
2019-03-30T12:16:17.818Z,18.10
2019-03-30T12:20:23.536Z,18.10
2019-03-30T12:24:29.262Z,18.60
2019-03-30T12:28:34.989Z,18.20
2019-03-30T12:33:19.053Z,19.50
2019-03-30T12:37:24.800Z,20.20
2019-03-30T12:42:18.631Z,20.10
2019-03-30T12:46:24.316Z,20.00
2019-03-30T12:55:20.053Z,21.90
2019-03-30T12:59:25.769Z,21.60
2019-03-30T13:03:31.535Z,20.50
2019-03-30T13:07:37.338Z,18.90
2019-03-30T13:11:43.020Z,18.50
2019-03-30T13:15:48.744Z,19.20
2019-03-30T13:19:54.433Z,19.60
2019-03-30T13:24:15.122Z,19.90
2019-03-30T13:28:20.885Z,19.90
2019-03-30T13:32:26.633Z,17.80
2019-03-30T13:36:39.574Z,19.70
2019-03-30T13:40:45.269Z,18.60
2019-03-30T13:44:50.950Z,18.50
2019-03-30T13:48:56.658Z,18.40
2019-03-30T13:53:02.406Z,18.10
2019-03-30T13:57:08.115Z,18.50
2019-03-30T14:01:13.812Z,17.90
2019-03-30T14:05:19.611Z,17.50
2019-03-30T14:09:25.274Z,19.80
2019-03-30T14:13:31.094Z,19.30
2019-03-30T14:17:36.819Z,18.20
2019-03-30T14:21:42.593Z,17.50
2019-03-30T14:25:48.295Z,18.10
2019-03-30T14:29:54.546Z,18.40
2019-03-30T14:34:00.321Z,18.00
2019-03-30T14:38:07.863Z,18.30
2019-03-30T14:42:16.585Z,19.10
2019-03-30T14:46:22.423Z,18.50
2019-03-30T14:50:28.193Z,18.60
2019-03-30T14:54:33.983Z,18.60
2019-03-30T14:58:39.722Z,19.50
2019-03-30T15:02:45.591Z,19.40
2019-03-30T15:06:51.278Z,21.80
2019-03-30T15:10:56.975Z,22.10
2019-03-30T15:15:02.725Z,20.30
2019-03-30T15:19:08.490Z,21.70
2019-03-30T15:23:20.200Z,21.80
2019-03-30T15:27:25.891Z,22.20
2019-03-30T15:31:31.578Z,21.20
2019-03-30T15:35:37.598Z,22.40
2019-03-30T15:39:43.760Z,23.80
2019-03-30T15:43:51.966Z,23.20
2019-03-30T15:47:57.038Z,23.10
2019-03-30T15:52:13.709Z,24.60
2019-03-30T15:56:10.474Z,24.50
2019-03-30T16:00:18.216Z,24.40
2019-03-30T16:04:25.600Z,23.70
2019-03-30T16:08:31.345Z,24.50
2019-03-30T16:12:37.048Z,24.80
2019-03-30T16:16:42.737Z,24.60
2019-03-30T16:20:48.451Z,24.00
2019-03-30T16:24:54.231Z,24.60
2019-03-30T16:29:00.001Z,25.30
2019-03-30T16:33:05.780Z,25.10
2019-03-30T16:55:16.965Z,26.10
2019-03-30T17:00:17.232Z,27.10
2019-03-30T17:04:23.013Z,29.40
2019-03-30T17:08:28.729Z,29.10
2019-03-30T17:13:16.275Z,28.20
2019-03-30T17:17:21.991Z,27.50
2019-03-30T17:21:27.682Z,27.10
2019-03-30T17:25:33.480Z,27.70
2019-03-30T17:29:39.194Z,27.20
2019-03-30T17:33:44.895Z,29.20
2019-03-30T17:37:50.618Z,27.30
2019-03-30T17:42:17.349Z,27.40
2019-03-30T17:46:23.034Z,27.60
2019-03-30T17:50:28.794Z,28.40
2019-03-30T17:54:33.476Z,28.80
2019-03-30T17:58:38.998Z,28.70
2019-03-30T18:03:17.750Z,28.90
2019-03-30T18:07:23.429Z,28.70
2019-03-30T18:11:29.248Z,28.70
2019-03-30T18:15:34.959Z,29.50
2019-03-30T18:19:41.636Z,29.30
2019-03-30T18:23:47.677Z,29.00
2019-03-30T18:27:53.434Z,29.10
2019-03-30T18:37:04.592Z,29.30
2019-03-30T18:41:10.309Z,29.90
2019-03-30T18:45:25.945Z,29.90
2019-03-30T18:49:31.641Z,29.80
2019-03-30T18:53:38.837Z,30.20
2019-03-30T18:57:44.583Z,30.20
2019-03-30T19:01:53.389Z,31.00
2019-03-30T19:05:59.103Z,30.50
2019-03-30T19:10:06.128Z,30.80
2019-03-30T19:14:11.990Z,31.00
2019-03-30T19:18:17.748Z,31.30
2019-03-30T19:22:23.524Z,31.40
2019-03-30T19:26:29.227Z,34.10
2019-03-30T19:30:34.957Z,31.40
2019-03-30T19:34:40.621Z,33.70
2019-03-30T19:38:46.347Z,31.80
2019-03-30T19:42:52.065Z,32.10
2019-03-30T19:46:57.763Z,33.40
2019-03-30T19:51:03.521Z,35.20
2019-03-30T19:55:09.406Z,34.40
2019-03-30T19:59:15.120Z,34.90
2019-03-30T20:03:20.835Z,32.50
2019-03-30T20:07:26.568Z,32.90
2019-03-30T20:11:32.297Z,35.10
2019-03-30T20:15:38.007Z,32.90
2019-03-30T20:19:43.723Z,33.20
2019-03-30T20:23:49.444Z,36.20
2019-03-30T20:27:55.144Z,36.20
2019-03-30T20:32:00.831Z,34.90
2019-03-30T20:36:06.543Z,34.90
2019-03-30T20:40:12.719Z,36.60
2019-03-30T20:44:18.502Z,34.20
2019-03-30T20:48:24.334Z,35.10
2019-03-30T20:52:30.029Z,35.90
2019-03-30T20:56:35.730Z,37.10
2019-03-30T21:00:41.474Z,37.60
2019-03-30T21:04:47.236Z,36.40
2019-03-30T21:08:52.945Z,39.10
2019-03-30T21:13:07.456Z,37.20
2019-03-30T21:17:19.271Z,36.30
2019-03-30T21:21:25.965Z,35.30
2019-03-30T21:25:31.670Z,36.80
2019-03-30T21:29:53.949Z,38.00
2019-03-30T21:33:48.092Z,37.00
2019-03-30T21:37:53.806Z,37.00
2019-03-30T21:41:59.590Z,36.10
2019-03-30T21:46:05.391Z,35.60
2019-03-30T21:50:11.302Z,35.80
2019-03-30T21:54:17.072Z,39.30
2019-03-30T21:58:22.794Z,37.30
2019-03-30T22:02:28.496Z,37.10
2019-03-30T22:06:34.619Z,40.10
2019-03-30T22:10:40.300Z,38.80
2019-03-30T22:14:46.043Z,38.00
2019-03-30T22:18:51.745Z,37.60
2019-03-30T22:22:57.467Z,36.90
2019-03-30T22:27:03.168Z,38.10
2019-03-30T22:31:08.867Z,37.70
2019-03-30T22:35:14.711Z,41.30
2019-03-30T22:39:20.480Z,39.50
2019-03-30T22:43:26.214Z,39.30
2019-03-30T22:47:31.917Z,37.50
2019-03-30T22:51:38.867Z,38.10
2019-03-30T22:55:44.679Z,39.30
2019-03-30T22:59:50.383Z,38.40
2019-03-30T23:03:56.211Z,37.50
2019-03-30T23:08:01.955Z,38.20
2019-03-30T23:12:07.659Z,39.60
2019-03-30T23:16:13.421Z,39.70
2019-03-30T23:20:20.101Z,38.50
2019-03-30T23:24:25.791Z,38.20
2019-03-30T23:28:31.526Z,38.70
2019-03-30T23:32:37.292Z,39.50
2019-03-30T23:36:44.052Z,41.10
2019-03-30T23:40:49.762Z,40.70
2019-03-30T23:44:55.536Z,39.80
2019-03-30T23:49:01.255Z,41.30
2019-03-30T23:53:07.658Z,40.90
2019-03-30T23:57:14.420Z,39.50
